createdAt,value
2022-08-29T00:00:59.576Z,0.00
2022-08-29T00:01:59.555Z,0.00
2022-08-29T00:02:59.513Z,0.00
2022-08-29T00:03:59.549Z,0.00
2022-08-29T00:04:59.500Z,0.00
2022-08-29T00:05:59.494Z,0.00
2022-08-29T00:07:00.137Z,0.00
2022-08-29T00:07:59.470Z,0.00
2022-08-29T00:08:59.472Z,0.00
2022-08-29T00:09:59.461Z,0.00
2022-08-29T00:10:59.448Z,0.00
2022-08-29T00:11:59.445Z,0.00
2022-08-29T00:12:59.431Z,0.00
2022-08-29T00:13:59.432Z,0.00
2022-08-29T00:14:59.419Z,0.00
2022-08-29T00:15:59.409Z,0.00
2022-08-29T00:16:59.462Z,0.00
2022-08-29T00:17:59.387Z,0.00
2022-08-29T00:19:00.390Z,0.00
2022-08-29T00:19:59.393Z,0.00
2022-08-29T00:20:59.372Z,0.00
2022-08-29T00:21:59.381Z,0.00
2022-08-29T00:22:59.362Z,0.00
2022-08-29T00:23:59.343Z,0.00
2022-08-29T00:24:59.329Z,0.00
2022-08-29T00:26:00.327Z,0.00
2022-08-29T00:26:59.320Z,0.00
2022-08-29T00:27:59.321Z,0.00
2022-08-29T00:28:59.311Z,0.00
2022-08-29T00:29:59.305Z,0.00
2022-08-29T00:32:00.020Z,0.00
2022-08-29T00:32:59.962Z,0.00
2022-08-29T00:33:59.946Z,0.00
2022-08-29T00:34:59.942Z,0.00
2022-08-29T00:35:59.935Z,0.00
2022-08-29T00:36:59.930Z,0.00
2022-08-29T00:37:59.927Z,0.00
2022-08-29T00:38:59.911Z,0.00
2022-08-29T00:39:59.955Z,0.00
2022-08-29T00:40:59.889Z,0.00
2022-08-29T00:41:59.881Z,0.00
2022-08-29T00:42:59.885Z,0.00
2022-08-29T00:43:59.869Z,0.00
2022-08-29T00:44:59.867Z,0.00
2022-08-29T00:45:59.897Z,0.00
2022-08-29T00:46:59.863Z,0.00
2022-08-29T00:47:59.832Z,0.00
2022-08-29T00:48:59.824Z,0.00
2022-08-29T00:49:59.817Z,0.00
2022-08-29T00:50:59.806Z,0.00
2022-08-29T00:51:59.805Z,0.00
2022-08-29T00:53:00.892Z,0.00
2022-08-29T00:54:00.880Z,0.00
2022-08-29T00:55:00.874Z,0.00
2022-08-29T00:56:00.868Z,0.00
2022-08-29T00:57:00.849Z,0.00
2022-08-29T00:58:00.869Z,0.00
2022-08-29T00:59:00.841Z,0.00
2022-08-29T01:00:00.833Z,0.00
2022-08-29T01:01:00.869Z,0.00
2022-08-29T01:02:00.881Z,0.00
2022-08-29T01:03:00.811Z,0.00
2022-08-29T01:04:00.800Z,0.00
2022-08-29T01:05:00.786Z,0.00
2022-08-29T01:06:00.778Z,0.00
2022-08-29T01:07:00.770Z,0.00
2022-08-29T01:08:00.778Z,0.00
2022-08-29T01:09:00.767Z,0.00
2022-08-29T01:10:00.744Z,0.00
2022-08-29T01:11:01.740Z,0.00
2022-08-29T01:12:00.731Z,0.00
2022-08-29T01:13:00.737Z,0.00
2022-08-29T01:14:00.715Z,0.00
2022-08-29T01:15:00.718Z,0.00
2022-08-29T01:16:00.750Z,0.00
2022-08-29T01:17:00.687Z,0.00
2022-08-29T01:18:00.689Z,0.00
2022-08-29T01:19:00.670Z,0.00
2022-08-29T01:20:00.680Z,0.00
2022-08-29T01:21:00.656Z,0.00
2022-08-29T01:22:00.656Z,0.00
2022-08-29T01:23:00.642Z,0.00
2022-08-29T01:24:00.648Z,0.00
2022-08-29T01:25:00.623Z,0.00
2022-08-29T01:26:00.610Z,0.00
2022-08-29T01:27:00.610Z,0.00
2022-08-29T01:28:00.604Z,0.00
2022-08-29T01:29:00.589Z,0.00
2022-08-29T01:30:01.577Z,0.00
2022-08-29T01:31:00.586Z,0.00
2022-08-29T01:32:00.603Z,0.00
2022-08-29T01:33:00.562Z,0.00
2022-08-29T01:34:00.554Z,0.00
2022-08-29T01:35:00.540Z,0.00
2022-08-29T01:36:00.532Z,0.00
2022-08-29T01:37:00.530Z,0.00
2022-08-29T01:38:00.515Z,0.00
2022-08-29T01:39:01.417Z,0.00
2022-08-29T01:40:01.494Z,0.00
2022-08-29T01:41:00.529Z,0.00
2022-08-29T01:42:00.492Z,0.00
2022-08-29T01:43:00.478Z,0.00
2022-08-29T01:44:00.487Z,0.00
2022-08-29T01:45:00.464Z,0.00
2022-08-29T01:46:00.512Z,0.00
2022-08-29T01:47:03.015Z,0.00
2022-08-29T01:48:03.548Z,0.00
2022-08-29T01:49:01.446Z,0.00
2022-08-29T01:50:00.428Z,0.00
2022-08-29T01:51:00.425Z,0.00
2022-08-29T01:52:00.410Z,0.00
2022-08-29T01:53:00.426Z,0.00
2022-08-29T01:54:00.383Z,0.00
2022-08-29T01:55:00.374Z,0.00
2022-08-29T01:56:00.375Z,0.00
2022-08-29T01:57:00.357Z,0.00
2022-08-29T01:58:00.358Z,0.00
2022-08-29T01:59:00.357Z,0.00
2022-08-29T02:00:00.340Z,0.00
2022-08-29T02:01:00.364Z,0.00
2022-08-29T02:02:00.373Z,0.00
2022-08-29T02:03:00.311Z,0.00
2022-08-29T02:04:00.297Z,0.00
2022-08-29T02:05:00.293Z,0.00
2022-08-29T02:06:00.279Z,0.00
2022-08-29T02:07:00.269Z,0.00
2022-08-29T02:08:00.265Z,0.00
2022-08-29T02:09:00.246Z,0.00
2022-08-29T02:10:01.260Z,0.00
2022-08-29T02:11:00.254Z,0.00
2022-08-29T02:12:00.238Z,0.00
2022-08-29T02:13:00.239Z,0.00
2022-08-29T02:14:00.216Z,0.00
2022-08-29T02:15:00.220Z,0.00
2022-08-29T02:16:00.256Z,0.00
2022-08-29T02:17:01.211Z,0.00
2022-08-29T02:18:00.192Z,0.00
2022-08-29T02:19:00.177Z,0.00
2022-08-29T02:20:00.205Z,0.00
2022-08-29T02:21:00.164Z,0.00
2022-08-29T02:22:00.165Z,0.00
2022-08-29T02:23:00.149Z,0.00
2022-08-29T02:24:11.256Z,0.00
2022-08-29T02:25:01.123Z,0.00
2022-08-29T02:26:00.931Z,0.00
2022-08-29T02:27:00.123Z,0.00
2022-08-29T02:28:00.103Z,0.00
2022-08-29T02:29:00.101Z,0.00
2022-08-29T02:30:01.093Z,0.00
2022-08-29T02:31:00.107Z,0.00
2022-08-29T02:32:00.920Z,0.00
2022-08-29T02:33:00.077Z,0.00
2022-08-29T02:34:00.058Z,0.00
2022-08-29T02:35:00.083Z,0.00
2022-08-29T02:36:00.055Z,0.00
2022-08-29T02:37:00.037Z,0.00
2022-08-29T02:38:00.033Z,0.00
2022-08-29T02:39:00.018Z,0.00
2022-08-29T02:40:00.048Z,0.00
2022-08-29T02:41:00.007Z,0.00
2022-08-29T02:42:00.007Z,0.00
2022-08-29T02:42:59.997Z,0.00
2022-08-29T02:43:59.972Z,0.00
2022-08-29T02:44:59.969Z,0.00
2022-08-29T02:45:59.957Z,0.00
2022-08-29T02:47:00.031Z,0.00
2022-08-29T02:47:59.940Z,0.00
2022-08-29T02:49:01.314Z,0.00
2022-08-29T02:49:59.981Z,0.00
2022-08-29T02:50:59.915Z,0.00
2022-08-29T02:51:59.934Z,0.00
2022-08-29T02:52:59.915Z,0.00
2022-08-29T02:53:59.892Z,0.00
2022-08-29T02:54:59.909Z,0.00
2022-08-29T02:55:59.873Z,0.00
2022-08-29T02:56:59.866Z,0.00
2022-08-29T02:57:59.866Z,0.00
2022-08-29T02:58:59.887Z,0.00
2022-08-29T02:59:59.857Z,0.00
2022-08-29T03:00:59.920Z,0.00
2022-08-29T03:01:59.921Z,0.00
2022-08-29T03:02:59.833Z,0.00
2022-08-29T03:03:59.855Z,0.00
2022-08-29T03:04:59.800Z,0.00
2022-08-29T03:05:59.809Z,0.00
2022-08-29T03:06:59.806Z,0.00
2022-08-29T03:07:59.778Z,0.00
2022-08-29T03:08:59.785Z,0.00
2022-08-29T03:09:59.758Z,0.00
2022-08-29T03:10:59.766Z,0.00
2022-08-29T03:11:59.743Z,0.00
2022-08-29T03:12:59.738Z,0.00
2022-08-29T03:13:59.734Z,0.00
2022-08-29T03:14:59.721Z,0.00
2022-08-29T03:15:59.799Z,0.00
2022-08-29T03:16:59.703Z,0.00
2022-08-29T03:17:59.702Z,0.00
2022-08-29T03:19:00.434Z,0.00
2022-08-29T03:19:59.685Z,0.00
2022-08-29T03:20:59.684Z,0.00
2022-08-29T03:21:59.675Z,0.00
2022-08-29T03:22:59.664Z,0.00
2022-08-29T03:23:59.652Z,0.00
2022-08-29T03:24:59.641Z,0.00
2022-08-29T03:25:59.636Z,0.00
2022-08-29T03:26:59.626Z,0.00
2022-08-29T03:27:59.644Z,0.00
2022-08-29T03:28:59.616Z,0.00
2022-08-29T03:29:59.603Z,0.00
2022-08-29T03:30:59.673Z,0.00
2022-08-29T03:32:00.440Z,0.00
2022-08-29T03:32:59.591Z,0.00
2022-08-29T03:33:59.573Z,0.00
2022-08-29T03:34:59.563Z,0.00
2022-08-29T03:35:59.549Z,0.00
2022-08-29T03:36:59.576Z,0.00
2022-08-29T03:37:59.539Z,0.00
2022-08-29T03:38:59.521Z,0.00
2022-08-29T03:39:59.572Z,0.00
2022-08-29T03:40:59.520Z,0.00
2022-08-29T03:41:59.500Z,0.00
2022-08-29T03:42:59.493Z,0.00
2022-08-29T03:43:59.480Z,0.00
2022-08-29T03:44:59.533Z,0.00
2022-08-29T03:45:59.464Z,0.00
2022-08-29T03:46:59.542Z,0.00
2022-08-29T03:47:59.449Z,0.00
2022-08-29T03:48:59.444Z,0.00
2022-08-29T03:49:59.441Z,0.00
2022-08-29T03:50:59.421Z,0.00
2022-08-29T03:51:59.419Z,0.00
2022-08-29T03:52:59.453Z,0.00
2022-08-29T03:53:59.406Z,0.00
2022-08-29T03:54:59.405Z,0.00
2022-08-29T03:55:59.390Z,0.00
2022-08-29T03:56:59.374Z,0.00
2022-08-29T03:57:59.376Z,0.00
2022-08-29T03:58:59.368Z,0.00
2022-08-29T03:59:59.373Z,0.00
2022-08-29T04:00:59.367Z,0.00
2022-08-29T04:01:59.372Z,0.00
2022-08-29T04:02:59.391Z,0.00
2022-08-29T04:03:59.320Z,4.00
2022-08-29T04:04:59.323Z,0.00
2022-08-29T04:05:59.306Z,0.00
2022-08-29T04:06:59.303Z,4.00
2022-08-29T04:07:59.293Z,0.00
2022-08-29T04:08:59.290Z,4.00
2022-08-29T04:09:59.283Z,4.00
2022-08-29T04:10:59.271Z,4.00
2022-08-29T04:11:59.277Z,4.00
2022-08-29T04:12:59.263Z,4.00
2022-08-29T04:13:59.872Z,4.00
2022-08-29T04:14:59.234Z,8.00
2022-08-29T04:15:59.256Z,8.00
2022-08-29T04:16:59.978Z,8.00
2022-08-29T04:17:59.208Z,12.00
2022-08-29T04:18:59.477Z,12.00
2022-08-29T04:21:05.466Z,20.00
2022-08-29T04:22:05.465Z,16.00
2022-08-29T04:23:05.457Z,20.00
2022-08-29T04:24:05.441Z,24.00
2022-08-29T04:25:05.434Z,28.00
2022-08-29T04:26:28.944Z,28.00
2022-08-29T04:27:06.424Z,32.00
2022-08-29T04:28:05.411Z,36.00
2022-08-29T04:29:05.401Z,40.00
2022-08-29T04:30:05.400Z,44.00
2022-08-29T04:31:05.413Z,48.00
2022-08-29T04:32:05.381Z,48.00
2022-08-29T04:33:05.373Z,56.00
2022-08-29T04:34:05.360Z,60.00
2022-08-29T04:35:05.361Z,68.00
2022-08-29T04:36:05.339Z,68.00
2022-08-29T04:37:05.341Z,76.00
2022-08-29T04:38:05.330Z,80.00
2022-08-29T04:39:05.317Z,84.00
2022-08-29T04:40:05.375Z,92.00
2022-08-29T04:41:05.300Z,100.00
2022-08-29T04:42:06.385Z,104.00
2022-08-29T04:43:06.387Z,112.00
2022-08-29T04:44:06.375Z,120.00
2022-08-29T04:45:06.546Z,124.00
2022-08-29T04:46:07.873Z,132.00
2022-08-29T04:47:07.351Z,140.00
2022-08-29T04:48:06.349Z,148.00
2022-08-29T04:49:06.354Z,152.00
2022-08-29T04:50:06.326Z,160.00
2022-08-29T04:51:06.321Z,168.00
2022-08-29T04:52:06.318Z,172.00
2022-08-29T04:53:06.314Z,176.00
2022-08-29T04:54:06.308Z,184.00
2022-08-29T04:55:06.281Z,188.00
2022-08-29T04:56:06.296Z,192.00
2022-08-29T04:57:06.268Z,200.00
2022-08-29T04:58:06.275Z,208.00
2022-08-29T04:59:06.253Z,216.00
2022-08-29T05:00:06.256Z,224.00
2022-08-29T05:01:06.243Z,232.00
2022-08-29T05:02:06.288Z,248.00
2022-08-29T05:03:06.297Z,264.00
2022-08-29T05:04:06.221Z,296.00
2022-08-29T05:05:06.910Z,324.00
2022-08-29T05:06:06.210Z,336.00
2022-08-29T05:07:06.203Z,340.00
2022-08-29T05:08:06.203Z,344.00
2022-08-29T05:09:06.168Z,348.00
2022-08-29T05:10:06.161Z,348.00
2022-08-29T05:11:06.149Z,348.00
2022-08-29T05:12:10.144Z,368.00
2022-08-29T05:13:07.154Z,400.00
2022-08-29T05:14:06.131Z,440.00
2022-08-29T05:15:06.120Z,476.00
2022-08-29T05:16:06.191Z,496.00
2022-08-29T05:17:06.106Z,512.00
2022-08-29T05:18:06.088Z,528.00
2022-08-29T05:19:06.093Z,544.00
2022-08-29T05:20:06.074Z,564.00
2022-08-29T05:21:06.066Z,580.00
2022-08-29T05:22:06.058Z,600.00
2022-08-29T05:23:06.054Z,616.00
2022-08-29T05:24:06.041Z,628.00
2022-08-29T05:25:06.027Z,588.00
2022-08-29T05:26:06.033Z,584.00
2022-08-29T05:27:06.041Z,668.00
2022-08-29T05:28:06.063Z,724.00
2022-08-29T05:29:08.390Z,748.00
2022-08-29T05:30:05.993Z,776.00
2022-08-29T05:31:06.027Z,808.00
2022-08-29T05:32:05.985Z,844.00
2022-08-29T05:33:05.975Z,872.00
2022-08-29T05:34:21.906Z,904.00
2022-08-29T05:35:06.948Z,940.00
2022-08-29T05:36:05.945Z,976.00
2022-08-29T05:37:05.937Z,1012.00
2022-08-29T05:38:09.028Z,1036.00
2022-08-29T05:39:06.927Z,1064.00
2022-08-29T05:40:05.972Z,1100.00
2022-08-29T05:41:05.910Z,1140.00
2022-08-29T05:42:05.904Z,1148.00
2022-08-29T05:43:05.891Z,1140.00
2022-08-29T05:44:05.887Z,1108.00
2022-08-29T05:45:05.889Z,1192.00
2022-08-29T05:46:05.905Z,1252.00
2022-08-29T05:47:05.852Z,1332.00
2022-08-29T05:48:06.850Z,1424.00
2022-08-29T05:49:05.845Z,1484.00
2022-08-29T05:50:05.844Z,1580.00
2022-08-29T05:51:05.817Z,1712.00
2022-08-29T05:52:05.817Z,1824.00
2022-08-29T05:53:05.803Z,1940.00
2022-08-29T05:54:05.794Z,2024.00
2022-08-29T05:55:05.791Z,2032.00
2022-08-29T05:56:05.775Z,2232.00
2022-08-29T05:57:05.809Z,2436.00
2022-08-29T05:58:05.772Z,2272.00
2022-08-29T05:59:05.764Z,2196.00
2022-08-29T06:00:05.742Z,2384.00
2022-08-29T06:01:05.730Z,2476.00
2022-08-29T06:02:05.730Z,2500.00
2022-08-29T06:03:05.856Z,2436.00
2022-08-29T06:04:05.842Z,2588.00
2022-08-29T06:05:05.704Z,2584.00
2022-08-29T06:06:05.697Z,2616.00
2022-08-29T06:07:05.705Z,2624.00
2022-08-29T06:08:05.675Z,2460.00
2022-08-29T06:09:05.678Z,2324.00
2022-08-29T06:10:05.655Z,2376.00
2022-08-29T06:11:06.741Z,2256.00
2022-08-29T06:12:05.659Z,3132.00
2022-08-29T06:13:06.565Z,3360.00
2022-08-29T06:14:05.630Z,3560.00
2022-08-29T06:15:05.630Z,3796.00
2022-08-29T06:16:05.708Z,3968.00
2022-08-29T06:17:05.615Z,4056.00
2022-08-29T06:18:05.620Z,3956.00
2022-08-29T06:19:05.584Z,4584.00
2022-08-29T06:20:05.591Z,5700.00
2022-08-29T06:21:05.576Z,5656.00
2022-08-29T06:22:09.608Z,4980.00
2022-08-29T06:23:05.557Z,4548.00
2022-08-29T06:24:05.555Z,4156.00
2022-08-29T06:25:28.065Z,3804.00
2022-08-29T06:26:07.541Z,3444.00
2022-08-29T06:27:05.524Z,3104.00
2022-08-29T06:28:05.524Z,2836.00
2022-08-29T06:29:05.510Z,2676.00
2022-08-29T06:30:05.497Z,2372.00
2022-08-29T06:31:05.575Z,2188.00
2022-08-29T06:32:05.479Z,2152.00
2022-08-29T06:33:05.490Z,2160.00
2022-08-29T06:34:05.505Z,2136.00
2022-08-29T06:35:05.585Z,2184.00
2022-08-29T06:36:05.545Z,2228.00
2022-08-29T06:37:05.474Z,2180.00
2022-08-29T06:38:05.445Z,2100.00
2022-08-29T06:39:05.454Z,1928.00
2022-08-29T06:40:07.422Z,1912.00
2022-08-29T06:41:05.422Z,1936.00
2022-08-29T06:42:05.412Z,1800.00
2022-08-29T06:43:05.403Z,1856.00
2022-08-29T06:44:05.399Z,1684.00
2022-08-29T06:45:05.382Z,1656.00
2022-08-29T06:46:05.386Z,1644.00
2022-08-29T06:47:05.374Z,1592.00
2022-08-29T06:48:05.366Z,1564.00
2022-08-29T06:49:05.374Z,1428.00
2022-08-29T06:50:05.348Z,1516.00
2022-08-29T06:51:05.337Z,1428.00
2022-08-29T06:52:05.341Z,1348.00
2022-08-29T06:53:26.472Z,1036.00
2022-08-29T06:54:07.377Z,976.00
2022-08-29T06:55:05.305Z,1056.00
2022-08-29T06:56:05.443Z,1244.00
2022-08-29T06:57:05.287Z,1408.00
2022-08-29T06:58:05.280Z,1436.00
2022-08-29T06:59:05.285Z,1360.00
2022-08-29T07:00:12.467Z,1308.00
2022-08-29T07:01:06.345Z,1228.00
2022-08-29T07:02:05.950Z,1152.00
2022-08-29T07:03:05.295Z,1148.00
2022-08-29T07:04:05.243Z,1180.00
2022-08-29T07:05:06.245Z,1376.00
2022-08-29T07:06:05.225Z,1464.00
2022-08-29T07:07:05.234Z,1388.00
2022-08-29T07:08:05.219Z,1328.00
2022-08-29T07:09:05.222Z,1448.00
2022-08-29T07:10:05.199Z,1588.00
2022-08-29T07:11:05.185Z,1660.00
2022-08-29T07:12:05.178Z,1664.00
2022-08-29T07:13:05.195Z,1708.00
2022-08-29T07:14:05.171Z,1756.00
2022-08-29T07:15:05.165Z,1768.00
2022-08-29T07:16:05.187Z,1812.00
2022-08-29T07:17:05.144Z,1904.00
2022-08-29T07:18:05.175Z,3944.00
2022-08-29T07:19:05.118Z,11196.00
2022-08-29T07:20:05.111Z,16224.00
2022-08-29T07:21:05.113Z,9136.00
2022-08-29T07:22:05.108Z,4796.00
2022-08-29T07:23:05.087Z,2412.00
2022-08-29T07:24:05.088Z,1988.00
2022-08-29T07:25:05.091Z,1696.00
2022-08-29T07:26:05.063Z,1716.00
2022-08-29T07:27:05.065Z,1500.00
2022-08-29T07:28:05.067Z,1544.00
2022-08-29T07:29:05.060Z,1220.00
2022-08-29T07:30:05.047Z,1280.00
2022-08-29T07:31:05.107Z,1432.00
2022-08-29T07:32:05.027Z,1392.00
2022-08-29T07:33:05.023Z,1300.00
2022-08-29T07:34:05.050Z,1264.00
2022-08-29T07:35:04.994Z,1216.00
2022-08-29T07:36:04.997Z,1196.00
2022-08-29T07:37:05.836Z,1244.00
2022-08-29T07:38:05.993Z,1400.00
2022-08-29T07:39:04.964Z,1456.00
2022-08-29T07:40:04.999Z,1500.00
2022-08-29T07:41:04.963Z,1488.00
2022-08-29T07:42:04.949Z,1436.00
2022-08-29T07:43:04.939Z,1360.00
2022-08-29T07:44:04.928Z,1480.00
2022-08-29T07:45:04.924Z,1464.00
2022-08-29T07:46:05.532Z,1492.00
2022-08-29T07:47:04.904Z,1492.00
2022-08-29T07:48:04.925Z,1536.00
2022-08-29T07:49:05.892Z,1492.00
2022-08-29T07:50:04.893Z,1600.00
2022-08-29T07:51:08.431Z,1552.00
2022-08-29T07:52:06.872Z,1572.00
2022-08-29T07:53:04.871Z,1392.00
2022-08-29T07:54:04.855Z,1484.00
2022-08-29T07:55:04.851Z,1512.00
2022-08-29T07:56:04.831Z,1524.00
2022-08-29T07:57:04.844Z,1440.00
2022-08-29T07:58:04.824Z,1412.00
2022-08-29T07:59:04.811Z,1348.00
2022-08-29T08:00:05.389Z,1356.00
2022-08-29T08:01:04.889Z,1324.00
2022-08-29T08:02:04.869Z,1292.00
2022-08-29T08:03:04.886Z,1408.00
2022-08-29T08:04:04.769Z,1468.00
2022-08-29T08:05:06.916Z,1376.00
2022-08-29T08:06:07.083Z,1376.00
2022-08-29T08:07:04.741Z,1296.00
2022-08-29T08:08:09.025Z,1240.00
2022-08-29T08:09:06.744Z,1296.00
2022-08-29T08:10:04.727Z,1264.00
2022-08-29T08:11:04.721Z,1276.00
2022-08-29T08:12:08.171Z,1264.00
2022-08-29T08:13:05.728Z,1276.00
2022-08-29T08:14:04.700Z,1252.00
2022-08-29T08:15:04.678Z,1232.00
2022-08-29T08:16:04.691Z,1220.00
2022-08-29T08:17:04.688Z,1252.00
2022-08-29T08:18:04.669Z,1288.00
2022-08-29T08:19:04.648Z,1236.00
2022-08-29T08:20:04.638Z,1268.00
2022-08-29T08:21:04.644Z,1280.00
2022-08-29T08:22:04.623Z,1240.00
2022-08-29T08:23:04.675Z,1240.00
2022-08-29T08:24:04.617Z,1152.00
2022-08-29T08:25:04.596Z,1264.00
2022-08-29T08:26:04.593Z,1272.00
2022-08-29T08:27:05.585Z,1284.00
2022-08-29T08:28:04.579Z,1320.00
2022-08-29T08:29:04.592Z,1356.00
2022-08-29T08:30:04.565Z,1296.00
2022-08-29T08:31:06.274Z,1476.00
2022-08-29T08:32:05.542Z,1444.00
2022-08-29T08:33:04.532Z,1432.00
2022-08-29T08:34:04.531Z,1456.00
2022-08-29T08:35:04.520Z,1440.00
2022-08-29T08:36:04.512Z,1384.00
2022-08-29T08:37:04.503Z,1336.00
2022-08-29T08:38:04.494Z,1268.00
2022-08-29T08:39:04.486Z,1324.00
2022-08-29T08:40:05.563Z,1348.00
2022-08-29T08:41:04.989Z,1300.00
2022-08-29T08:42:04.476Z,1312.00
2022-08-29T08:43:04.446Z,1392.00
2022-08-29T08:44:04.447Z,1472.00
2022-08-29T08:45:04.437Z,1396.00
2022-08-29T08:46:04.475Z,1388.00
2022-08-29T08:47:04.435Z,1384.00
2022-08-29T08:48:04.419Z,1384.00
2022-08-29T08:49:04.408Z,1392.00
2022-08-29T08:50:04.389Z,1364.00
2022-08-29T08:51:04.381Z,1396.00
2022-08-29T08:52:04.376Z,1408.00
2022-08-29T08:53:04.389Z,1428.00
2022-08-29T08:54:04.360Z,1472.00
2022-08-29T08:55:04.358Z,1424.00
2022-08-29T08:56:04.343Z,1436.00
2022-08-29T08:57:04.357Z,1372.00
2022-08-29T08:58:04.327Z,1432.00
2022-08-29T08:59:04.315Z,1472.00
2022-08-29T09:00:04.320Z,1460.00
2022-08-29T09:01:04.378Z,1484.00
2022-08-29T09:02:06.753Z,1504.00
2022-08-29T09:03:04.284Z,1544.00
2022-08-29T09:04:04.278Z,1504.00
2022-08-29T09:05:04.266Z,1468.00
2022-08-29T09:06:04.263Z,1540.00
2022-08-29T09:07:04.266Z,1544.00
2022-08-29T09:08:04.244Z,1508.00
2022-08-29T09:09:04.235Z,1492.00
2022-08-29T09:10:04.223Z,1476.00
2022-08-29T09:11:04.220Z,1496.00
2022-08-29T09:12:04.219Z,1536.00
2022-08-29T09:13:04.207Z,1560.00
2022-08-29T09:14:04.192Z,1576.00
2022-08-29T09:15:04.175Z,1584.00
2022-08-29T09:16:04.193Z,1504.00
2022-08-29T09:17:04.163Z,1508.00
2022-08-29T09:18:04.161Z,1524.00
2022-08-29T09:19:04.148Z,1528.00
2022-08-29T09:20:04.136Z,1484.00
2022-08-29T09:21:10.075Z,1508.00
2022-08-29T09:22:05.115Z,1528.00
2022-08-29T09:23:04.118Z,1564.00
2022-08-29T09:24:04.104Z,1588.00
2022-08-29T09:25:04.101Z,1616.00
2022-08-29T09:26:04.097Z,1588.00
2022-08-29T09:27:04.081Z,1608.00
2022-08-29T09:28:04.090Z,1592.00
2022-08-29T09:29:04.069Z,1568.00
2022-08-29T09:30:04.065Z,1552.00
2022-08-29T09:31:04.061Z,1528.00
2022-08-29T09:32:04.103Z,1540.00
2022-08-29T09:33:04.183Z,1560.00
2022-08-29T09:34:04.089Z,1528.00
2022-08-29T09:35:08.794Z,1544.00
2022-08-29T09:36:05.021Z,1580.00
2022-08-29T09:37:04.007Z,1588.00
2022-08-29T09:38:04.001Z,1588.00
2022-08-29T09:39:03.991Z,1592.00
2022-08-29T09:40:04.029Z,1532.00
2022-08-29T09:41:03.981Z,1528.00
2022-08-29T09:42:03.958Z,1540.00
2022-08-29T09:43:03.951Z,1512.00
2022-08-29T09:44:03.949Z,1492.00
2022-08-29T09:45:03.947Z,1504.00
2022-08-29T09:46:04.014Z,1504.00
2022-08-29T09:47:03.931Z,1516.00
2022-08-29T09:48:03.916Z,1496.00
2022-08-29T09:49:03.907Z,1500.00
2022-08-29T09:50:03.918Z,1500.00
2022-08-29T09:51:04.518Z,1492.00
2022-08-29T09:52:03.913Z,1496.00
2022-08-29T09:53:05.754Z,1516.00
2022-08-29T09:54:04.877Z,1508.00
2022-08-29T09:55:03.900Z,1508.00
2022-08-29T09:56:03.845Z,1492.00
2022-08-29T09:57:03.876Z,1492.00
2022-08-29T09:58:03.843Z,1468.00
2022-08-29T09:59:03.829Z,1480.00
2022-08-29T10:00:03.815Z,1484.00
2022-08-29T10:01:04.486Z,1488.00
2022-08-29T10:02:03.881Z,1464.00
2022-08-29T10:03:03.825Z,1452.00
2022-08-29T10:04:03.826Z,1444.00
2022-08-29T10:05:03.781Z,1436.00
2022-08-29T10:06:03.769Z,1440.00
2022-08-29T10:07:03.819Z,1436.00
2022-08-29T10:08:36.956Z,1392.00
2022-08-29T10:09:03.737Z,1408.00
2022-08-29T10:10:04.744Z,1428.00
2022-08-29T10:11:03.727Z,1440.00
2022-08-29T10:12:03.727Z,1404.00
2022-08-29T10:13:03.707Z,1364.00
2022-08-29T10:14:03.709Z,1328.00
2022-08-29T10:15:03.720Z,1316.00
2022-08-29T10:16:03.708Z,1308.00
2022-08-29T10:17:03.737Z,1316.00
2022-08-29T10:18:03.669Z,1328.00
2022-08-29T10:19:03.664Z,1304.00
2022-08-29T10:20:03.673Z,1268.00
2022-08-29T10:21:03.656Z,1244.00
2022-08-29T10:22:03.640Z,1224.00
2022-08-29T10:23:03.627Z,1240.00
2022-08-29T10:24:03.653Z,1228.00
2022-08-29T10:25:03.613Z,1252.00
2022-08-29T10:26:03.602Z,1248.00
2022-08-29T10:27:03.611Z,1248.00
2022-08-29T10:28:03.597Z,1232.00
2022-08-29T10:29:03.593Z,1244.00
2022-08-29T10:30:03.593Z,1264.00
2022-08-29T10:31:03.561Z,1284.00
2022-08-29T10:32:03.590Z,1260.00
2022-08-29T10:33:03.549Z,1292.00
2022-08-29T10:34:03.539Z,1296.00
2022-08-29T10:35:03.538Z,1324.00
2022-08-29T10:36:03.545Z,1348.00
2022-08-29T10:37:03.515Z,1436.00
2022-08-29T10:38:03.531Z,1476.00
2022-08-29T10:39:03.504Z,1492.00
2022-08-29T10:40:03.567Z,1480.00
2022-08-29T10:41:03.483Z,1464.00
2022-08-29T10:42:06.087Z,1428.00
2022-08-29T10:43:03.483Z,1344.00
2022-08-29T10:44:03.545Z,1308.00
2022-08-29T10:45:03.462Z,1256.00
2022-08-29T10:46:03.516Z,1236.00
2022-08-29T10:47:03.444Z,1216.00
2022-08-29T10:48:03.428Z,1296.00
2022-08-29T10:49:03.422Z,1332.00
2022-08-29T10:50:03.447Z,1272.00
2022-08-29T10:51:03.409Z,1200.00
2022-08-29T10:52:03.440Z,1124.00
2022-08-29T10:53:03.400Z,1048.00
2022-08-29T10:54:05.967Z,1056.00
2022-08-29T10:55:03.397Z,1136.00
2022-08-29T10:56:06.853Z,1144.00
2022-08-29T10:57:04.364Z,1148.00
2022-08-29T10:58:05.042Z,1192.00
2022-08-29T10:59:03.344Z,1180.00
2022-08-29T11:00:03.347Z,1084.00
2022-08-29T11:01:08.450Z,1108.00
2022-08-29T11:02:05.329Z,1136.00
2022-08-29T11:03:03.330Z,1176.00
2022-08-29T11:04:03.968Z,1148.00
2022-08-29T11:05:03.297Z,1168.00
2022-08-29T11:06:03.293Z,1104.00
2022-08-29T11:07:03.277Z,1100.00
2022-08-29T11:08:03.267Z,1148.00
2022-08-29T11:09:03.267Z,1116.00
2022-08-29T11:10:03.345Z,1160.00
2022-08-29T11:11:03.245Z,1184.00
2022-08-29T11:12:03.235Z,1152.00
2022-08-29T11:13:03.224Z,1168.00
2022-08-29T11:14:05.747Z,1180.00
2022-08-29T11:15:04.255Z,1192.00
2022-08-29T11:16:03.270Z,1228.00
2022-08-29T11:17:03.504Z,1264.00
2022-08-29T11:18:03.193Z,1316.00
2022-08-29T11:19:03.184Z,1376.00
2022-08-29T11:20:03.186Z,1432.00
2022-08-29T11:21:03.174Z,1480.00
2022-08-29T11:22:03.188Z,1520.00
2022-08-29T11:23:03.157Z,1548.00
2022-08-29T11:24:04.050Z,1580.00
2022-08-29T11:25:04.981Z,1492.00
2022-08-29T11:26:03.138Z,1536.00
2022-08-29T11:27:03.120Z,1500.00
2022-08-29T11:28:03.121Z,1448.00
2022-08-29T11:29:03.114Z,1288.00
2022-08-29T11:30:03.179Z,1188.00
2022-08-29T11:31:03.160Z,1240.00
2022-08-29T11:32:03.103Z,1260.00
2022-08-29T11:33:03.077Z,1256.00
2022-08-29T11:34:03.125Z,1184.00
2022-08-29T11:35:03.069Z,1208.00
2022-08-29T11:36:05.041Z,1252.00
2022-08-29T11:37:04.055Z,1196.00
2022-08-29T11:38:03.038Z,1252.00
2022-08-29T11:39:03.034Z,1156.00
2022-08-29T11:40:03.060Z,1156.00
2022-08-29T11:42:05.028Z,1220.00
2022-08-29T11:43:03.002Z,1128.00
2022-08-29T11:44:04.003Z,1132.00
2022-08-29T11:45:02.993Z,1124.00
2022-08-29T11:46:02.976Z,1160.00
2022-08-29T11:47:03.062Z,1152.00
2022-08-29T11:48:02.960Z,1192.00
2022-08-29T11:49:02.994Z,1152.00
2022-08-29T11:50:02.991Z,1112.00
2022-08-29T11:51:02.936Z,1140.00
2022-08-29T11:52:02.934Z,1068.00
2022-08-29T11:53:02.918Z,948.00
2022-08-29T11:54:02.918Z,908.00
2022-08-29T11:55:03.516Z,940.00
2022-08-29T11:56:02.911Z,876.00
2022-08-29T11:57:02.892Z,868.00
2022-08-29T11:58:05.728Z,864.00
2022-08-29T11:59:03.900Z,820.00
2022-08-29T12:00:02.910Z,844.00
2022-08-29T12:01:02.854Z,776.00
2022-08-29T12:02:02.938Z,776.00
2022-08-29T12:03:07.284Z,880.00
2022-08-29T12:04:03.851Z,840.00
2022-08-29T12:05:02.861Z,760.00
2022-08-29T12:06:02.818Z,744.00
2022-08-29T12:07:02.809Z,820.00
2022-08-29T12:08:26.332Z,812.00
2022-08-29T12:09:07.136Z,768.00
2022-08-29T12:10:03.802Z,744.00
2022-08-29T12:11:02.786Z,756.00
2022-08-29T12:12:02.807Z,800.00
2022-08-29T12:13:02.768Z,804.00
2022-08-29T12:14:02.752Z,788.00
2022-08-29T12:15:02.764Z,816.00
2022-08-29T12:16:02.786Z,800.00
2022-08-29T12:17:02.761Z,788.00
2022-08-29T12:18:04.523Z,808.00
2022-08-29T12:19:03.759Z,812.00
2022-08-29T12:20:02.847Z,804.00
2022-08-29T12:21:03.506Z,804.00
2022-08-29T12:22:02.714Z,816.00
2022-08-29T12:23:02.692Z,820.00
2022-08-29T12:24:02.682Z,832.00
2022-08-29T12:25:02.713Z,828.00
2022-08-29T12:26:21.923Z,844.00
2022-08-29T12:27:04.655Z,872.00
2022-08-29T12:28:02.703Z,876.00
2022-08-29T12:29:02.634Z,880.00
2022-08-29T12:30:03.629Z,880.00
2022-08-29T12:31:02.643Z,868.00
2022-08-29T12:32:18.803Z,860.00
2022-08-29T12:33:04.612Z,852.00
2022-08-29T12:34:02.600Z,844.00
2022-08-29T12:35:02.615Z,840.00
2022-08-29T12:36:02.604Z,840.00
2022-08-29T12:37:02.591Z,824.00